Time;durP1;ratioP1;P1;durP2;ratioP2;P2;SDS_P1;SDS_P2;PMS_P1;PMS_P2;Temp;Humidity;BMP_temperature;BMP_pressure;BME280_temperature;BME280_humidity;BME280_pressure;Samples;Min_cycle;Max_cycle;Signal;HPM_P1;HPM_P2
2021/03/07 00:00:39;;;;;;;10.33;1.07;;;6.00;53.00;;;;;;5054922;28;20493;-83
2021/03/07 00:03:05;;;;;;;2.33;0.73;;;5.90;52.90;;;;;;5056233;28;20378;-83
2021/03/07 00:05:31;;;;;;;7.87;1.63;;;5.90;53.00;;;;;;5066440;28;20040;-83
2021/03/07 00:07:57;;;;;;;1.90;0.47;;;5.90;53.00;;;;;;5061155;28;20037;-83
2021/03/07 00:10:23;;;;;;;2.40;0.93;;;5.90;53.00;;;;;;5064117;28;20072;-83
2021/03/07 00:12:50;;;;;;;1.77;0.80;;;5.90;53.00;;;;;;5038507;28;20029;-83
2021/03/07 00:15:17;;;;;;;1.37;1.17;;;5.80;53.10;;;;;;5051493;28;20398;-83
2021/03/07 00:17:44;;;;;;;11.17;1.47;;;5.80;53.10;;;;;;5063308;28;20646;-83
2021/03/07 00:20:12;;;;;;;2.90;1.47;;;5.80;53.10;;;;;;5046583;28;20067;-83
2021/03/07 00:22:38;;;;;;;2.10;1.27;;;5.70;53.20;;;;;;5043200;28;20036;-83
2021/03/07 00:25:06;;;;;;;4.60;1.30;;;5.70;53.20;;;;;;5055087;28;20492;-83
2021/03/07 00:27:32;;;;;;;1.07;0.73;;;5.60;53.20;;;;;;5049762;28;20033;-83
2021/03/07 00:29:58;;;;;;;8.57;0.80;;;5.60;53.30;;;;;;5064412;28;20029;-83
2021/03/07 00:32:24;;;;;;;2.33;1.63;;;5.60;53.30;;;;;;5066125;28;20034;-83
2021/03/07 00:34:50;;;;;;;1.13;0.40;;;5.60;53.40;;;;;;5041133;28;20044;-84
2021/03/07 00:37:16;;;;;;;1.50;1.20;;;5.50;53.40;;;;;;5056347;28;20032;-83
2021/03/07 00:39:42;;;;;;;1.70;0.93;;;5.50;53.50;;;;;;5054823;28;20039;-83
2021/03/07 00:42:08;;;;;;;8.13;1.20;;;5.50;53.50;;;;;;5051891;28;20049;-83
2021/03/07 00:44:35;;;;;;;0.90;0.50;;;5.40;53.50;;;;;;5057665;28;20036;-83
2021/03/07 00:47:01;;;;;;;3.10;1.10;;;5.40;53.60;;;;;;5055303;28;20033;-83
2021/03/07 00:49:28;;;;;;;1.57;0.90;;;5.40;53.60;;;;;;5057685;28;20021;-83
2021/03/07 00:51:54;;;;;;;4.63;1.27;;;5.40;53.60;;;;;;5038797;28;20028;-83
2021/03/07 00:54:20;;;;;;;3.37;1.37;;;5.40;53.60;;;;;;5035263;28;20041;-84
2021/03/07 00:56:47;;;;;;;1.07;0.50;;;5.40;53.70;;;;;;5054837;28;20032;-83
2021/03/07 00:59:13;;;;;;;2.40;1.07;;;5.30;54.30;;;;;;5064485;28;20448;-84
2021/03/07 01:01:39;;;;;;;1.43;0.87;;;5.30;53.70;;;;;;5063591;28;20489;-83
2021/03/07 01:04:08;;;;;;;2.67;0.80;;;5.30;53.70;;;;;;5064929;28;20024;-83
2021/03/07 01:06:34;;;;;;;3.17;1.13;;;5.30;53.80;;;;;;5037089;28;20045;-83
2021/03/07 01:09:00;;;;;;;0.90;0.80;;;5.30;53.80;;;;;;5054021;28;20025;-84
2021/03/07 01:11:26;;;;;;;2.13;1.13;;;5.30;53.80;;;;;;5039278;28;20055;-83
2021/03/07 01:13:53;;;;;;;2.43;1.03;;;5.20;53.80;;;;;;5039200;28;20036;-83
2021/03/07 01:16:20;;;;;;;2.30;1.07;;;5.30;53.90;;;;;;5055095;28;20033;-83
2021/03/07 01:18:46;;;;;;;2.77;1.50;;;5.30;53.90;;;;;;5051462;28;20478;-83
2021/03/07 01:21:12;;;;;;;4.10;1.40;;;5.30;53.80;;;;;;5051739;28;20037;-83
2021/03/07 01:23:38;;;;;;;2.43;1.67;;;5.30;53.80;;;;;;5068843;28;20040;-83
2021/03/07 01:26:04;;;;;;;4.90;1.73;;;5.30;53.80;;;;;;5056354;28;20028;-84
2021/03/07 01:28:30;;;;;;;11.90;1.97;;;5.30;53.90;;;;;;5054598;28;20066;-83
2021/03/07 01:30:56;;;;;;;2.77;0.53;;;5.30;53.90;;;;;;5054936;28;20048;-83
2021/03/07 01:33:23;;;;;;;0.73;0.57;;;5.30;53.90;;;;;;5051753;28;20029;-83
2021/03/07 01:35:49;;;;;;;3.27;1.30;;;5.30;54.00;;;;;;5054155;28;20032;-83
2021/03/07 01:38:15;;;;;;;2.40;0.60;;;5.30;54.00;;;;;;5037694;28;20029;-83
2021/03/07 01:40:46;;;;;;;1.87;1.03;;;5.30;54.00;;;;;;5056225;28;20033;-83
2021/03/07 01:43:12;;;;;;;;;;;5.30;54.10;;;;;;5055472;28;20401;-83
2021/03/07 01:45:39;;;;;;;4.17;1.43;;;5.20;54.10;;;;;;5054355;28;19920;-83
2021/03/07 01:48:06;;;;;;;0.93;0.57;;;5.20;54.00;;;;;;5051675;28;20040;-83
2021/03/07 01:50:33;;;;;;;2.63;1.03;;;5.20;54.10;;;;;;5049196;28;20032;-83
2021/03/07 01:52:59;;;;;;;5.50;1.10;;;5.10;54.10;;;;;;5040052;28;20480;-83
2021/03/07 01:55:31;;;;;;;2.27;0.87;;;5.10;54.10;;;;;;5054782;28;20024;-83
2021/03/07 01:58:19;;;;;;;3.17;1.20;;;5.00;54.20;;;;;;5054623;28;20021;-83
2021/03/07 02:00:45;;;;;;;6.47;1.23;;;5.00;54.30;;;;;;5041389;28;20028;-83
2021/03/07 02:03:12;;;;;;;0.80;0.80;;;5.00;54.30;;;;;;5050847;28;20367;-83
2021/03/07 02:05:38;;;;;;;9.40;1.67;;;4.90;54.30;;;;;;5049912;28;20485;-83
2021/03/07 02:08:04;;;;;;;0.93;0.50;;;5.00;54.40;;;;;;5056343;28;20041;-83
2021/03/07 02:10:32;;;;;;;2.10;1.13;;;4.90;54.40;;;;;;5054916;28;20021;-83
2021/03/07 02:13:05;;;;;;;2.93;1.80;;;5.00;54.40;;;;;;5038420;28;20043;-83
2021/03/07 02:15:31;;;;;;;2.93;1.40;;;4.90;54.40;;;;;;5051447;28;20025;-82
2021/03/07 02:17:57;;;;;;;2.30;1.30;;;4.90;54.40;;;;;;5035313;28;20028;-83
2021/03/07 02:20:24;;;;;;;3.33;0.70;;;4.90;54.40;;;;;;5038390;28;20041;-83
2021/03/07 02:22:56;;;;;;;2.47;1.07;;;4.90;54.40;;;;;;5054236;28;20028;-83
2021/03/07 02:25:23;;;;;;;2.83;1.90;;;4.80;54.30;;;;;;5055899;28;20040;-83
2021/03/07 02:27:49;;;;;;;1.53;0.63;;;4.90;54.40;;;;;;5055441;28;20027;-83
2021/03/07 02:30:16;;;;;;;0.20;0.20;;;4.80;54.40;;;;;;5049760;28;20025;-83
2021/03/07 02:32:45;;;;;;;3.13;0.70;;;4.80;54.50;;;;;;5053652;28;20044;-83
2021/03/07 02:35:18;;;;;;;2.93;0.47;;;4.80;54.60;;;;;;5054071;28;20021;-83
2021/03/07 02:37:50;;;;;;;1.20;0.60;;;4.70;54.60;;;;;;5034208;28;20056;-83
2021/03/07 02:40:18;;;;;;;1.27;0.93;;;4.70;55.20;;;;;;5013565;28;20045;-83
2021/03/07 02:42:44;;;;;;;2.10;0.87;;;4.70;54.60;;;;;;5038164;28;20408;-83
2021/03/07 02:45:12;;;;;;;3.17;0.50;;;4.70;54.60;;;;;;5059732;28;20040;-83
2021/03/07 02:47:38;;;;;;;1.93;0.53;;;4.70;54.60;;;;;;5050043;28;20040;-84
2021/03/07 02:50:07;;;;;;;2.60;1.63;;;4.70;54.60;;;;;;5054250;28;20485;-83
2021/03/07 02:52:34;;;;;;;3.83;0.77;;;4.70;54.60;;;;;;5054230;28;20035;-83
2021/03/07 02:55:00;;;;;;;1.07;0.57;;;4.60;54.60;;;;;;5037548;28;20044;-83
2021/03/07 02:57:27;;;;;;;1.63;1.23;;;4.60;54.60;;;;;;5051546;28;20044;-83
2021/03/07 02:59:53;;;;;;;7.93;1.27;;;4.60;54.80;;;;;;5036311;28;20041;-83
2021/03/07 03:02:19;;;;;;;1.53;0.70;;;4.50;55.40;;;;;;5048412;28;20033;-83
2021/03/07 03:04:46;;;;;;;0.87;0.70;;;4.50;54.80;;;;;;5058186;28;20029;-83
2021/03/07 03:07:12;;;;;;;1.30;0.57;;;4.50;54.90;;;;;;5038485;28;20028;-83
2021/03/07 03:09:38;;;;;;;3.53;1.20;;;4.40;54.90;;;;;;5044766;28;20398;-83
2021/03/07 03:12:04;;;;;;;0.43;0.27;;;4.40;55.00;;;;;;5045773;28;20033;-83
2021/03/07 03:14:30;;;;;;;1.60;0.83;;;4.30;55.10;;;;;;5036095;28;20382;-82
2021/03/07 03:16:58;;;;;;;0.10;0.10;;;4.30;55.20;;;;;;5030428;28;20041;-83
2021/03/07 03:19:26;;;;;;;1.20;0.60;;;4.20;55.20;;;;;;5030940;28;20033;-83
2021/03/07 03:21:53;;;;;;;0.67;0.53;;;4.20;55.30;;;;;;5031698;28;20079;-83
2021/03/07 03:24:19;;;;;;;1.87;1.17;;;4.10;55.30;;;;;;5051072;28;20033;-83
2021/03/07 03:26:45;;;;;;;1.03;0.60;;;4.10;55.40;;;;;;5048198;28;20048;-83
2021/03/07 03:29:12;;;;;;;3.77;0.80;;;4.10;55.40;;;;;;5042791;28;20465;-83
2021/03/07 03:31:38;;;;;;;0.30;0.30;;;4.00;55.40;;;;;;5054588;28;20492;-83
2021/03/07 03:34:05;;;;;;;0.67;0.60;;;4.00;55.50;;;;;;5034137;28;20064;-83
2021/03/07 03:36:32;;;;;;;1.23;0.60;;;4.00;55.60;;;;;;5051731;28;20353;-83
2021/03/07 03:39:02;;;;;;;1.00;0.83;;;3.90;55.60;;;;;;5068302;28;20036;-82
2021/03/07 03:41:31;;;;;;;0.83;0.60;;;3.90;55.60;;;;;;5057898;28;20037;-83
2021/03/07 03:43:57;;;;;;;2.97;1.27;;;3.90;55.60;;;;;;5061890;28;20039;-83
2021/03/07 03:46:24;;;;;;;1.43;0.67;;;4.00;55.60;;;;;;5062654;28;20037;-83
2021/03/07 03:48:55;;;;;;;2.33;1.03;;;4.00;55.60;;;;;;5039382;28;20048;-83
2021/03/07 03:51:22;;;;;;;4.73;0.67;;;3.90;55.50;;;;;;5053793;28;20040;-83
2021/03/07 03:53:48;;;;;;;0.53;0.40;;;3.90;55.50;;;;;;5071827;28;20020;-83
2021/03/07 03:56:15;;;;;;;1.80;1.27;;;4.00;55.60;;;;;;5061501;28;20036;-83
2021/03/07 03:58:42;;;;;;;3.23;1.37;;;4.00;55.60;;;;;;5042537;28;20032;-83
2021/03/07 04:01:09;;;;;;;2.00;1.67;;;4.00;55.70;;;;;;5056370;28;20056;-82
2021/03/07 04:03:35;;;;;;;0.87;0.50;;;3.90;55.80;;;;;;5055033;28;20028;-83
2021/03/07 04:06:01;;;;;;;1.93;0.57;;;3.90;55.90;;;;;;5053676;28;20029;-82
2021/03/07 04:08:27;;;;;;;2.03;0.63;;;3.80;55.90;;;;;;5040686;28;20040;-82
2021/03/07 04:10:53;;;;;;;2.07;1.30;;;3.80;56.00;;;;;;5057846;28;20025;-83
2021/03/07 04:13:21;;;;;;;2.43;0.73;;;3.80;56.00;;;;;;5021652;28;20394;-83
2021/03/07 04:15:47;;;;;;;7.47;1.10;;;3.80;55.90;;;;;;5056965;28;20036;-82
2021/03/07 04:18:15;;;;;;;2.90;0.93;;;3.80;55.90;;;;;;5035910;28;20045;-83
2021/03/07 04:20:42;;;;;;;0.90;0.70;;;3.80;55.90;;;;;;5051440;28;20052;-82
2021/03/07 04:23:09;;;;;;;0.20;0.17;;;3.80;55.90;;;;;;5058043;28;20056;-82
2021/03/07 04:25:36;;;;;;;0.50;0.20;;;3.80;56.10;;;;;;5056514;28;20044;-83
2021/03/07 04:28:03;;;;;;;1.17;0.33;;;3.70;56.00;;;;;;5056381;28;20032;-83
2021/03/07 04:30:29;;;;;;;2.03;0.33;;;3.80;56.20;;;;;;5036139;28;20543;-82
2021/03/07 04:32:55;;;;;;;0.83;0.60;;;3.70;56.20;;;;;;5054687;28;20051;-82
2021/03/07 04:35:21;;;;;;;1.43;0.60;;;3.70;56.30;;;;;;5056800;28;20036;-82
2021/03/07 04:37:47;;;;;;;3.17;1.37;;;3.70;56.30;;;;;;5041514;28;20040;-82
2021/03/07 04:40:14;;;;;;;1.27;0.83;;;3.70;56.30;;;;;;5039620;28;20393;-83
2021/03/07 04:42:41;;;;;;;2.80;0.70;;;3.70;56.30;;;;;;5062754;28;20041;-82
2021/03/07 04:45:07;;;;;;;2.07;1.00;;;3.70;56.40;;;;;;5050886;28;20029;-81
2021/03/07 04:47:33;;;;;;;1.73;0.63;;;3.70;56.50;;;;;;5057750;28;20025;-81
2021/03/07 04:50:00;;;;;;;2.97;1.00;;;3.60;56.50;;;;;;5064840;28;20024;-81
2021/03/07 04:52:26;;;;;;;1.47;0.73;;;3.70;56.50;;;;;;5058693;28;20025;-81
2021/03/07 04:54:52;;;;;;;2.07;0.80;;;3.70;56.50;;;;;;5055730;28;20037;-81
2021/03/07 04:57:18;;;;;;;3.20;2.13;;;3.70;56.50;;;;;;5052256;28;20029;-81
2021/03/07 04:59:44;;;;;;;1.80;0.93;;;3.70;56.50;;;;;;5039054;28;20367;-81
2021/03/07 05:02:10;;;;;;;1.10;0.50;;;3.60;56.70;;;;;;5055168;28;20052;-80
2021/03/07 05:04:36;;;;;;;2.93;0.63;;;3.60;56.90;;;;;;5061350;28;20469;-81
2021/03/07 05:07:02;;;;;;;1.83;0.50;;;3.50;56.90;;;;;;5064153;28;20036;-80
2021/03/07 05:09:29;;;;;;;3.13;1.67;;;3.50;57.00;;;;;;5054029;28;20367;-84
2021/03/07 05:11:55;;;;;;;1.87;0.70;;;3.50;57.00;;;;;;5036747;28;20032;-83
2021/03/07 05:14:21;;;;;;;3.07;0.83;;;3.50;57.10;;;;;;5072752;28;20040;-81
2021/03/07 05:16:47;;;;;;;1.63;0.63;;;3.50;57.20;;;;;;5063996;28;20492;-81
2021/03/07 05:19:13;;;;;;;1.97;1.00;;;3.50;57.40;;;;;;5060569;28;20021;-80
2021/03/07 05:21:39;;;;;;;0.30;0.20;;;3.50;57.50;;;;;;5052603;28;20036;-81
2021/03/07 05:24:06;;;;;;;0.80;0.60;;;3.40;57.60;;;;;;5051679;28;20036;-81
2021/03/07 05:26:32;;;;;;;2.13;0.37;;;3.40;57.70;;;;;;5063755;28;20051;-83
2021/03/07 05:28:58;;;;;;;0.47;0.30;;;3.40;57.80;;;;;;5062343;28;20106;-84
2021/03/07 05:31:24;;;;;;;1.97;0.63;;;3.40;57.80;;;;;;5061914;28;20486;-82
2021/03/07 05:33:50;;;;;;;1.30;0.47;;;3.40;57.80;;;;;;5038467;28;20047;-83
2021/03/07 05:36:16;;;;;;;1.70;0.97;;;3.40;57.80;;;;;;5064562;28;20044;-83
2021/03/07 05:38:42;;;;;;;0.70;0.50;;;3.40;57.80;;;;;;5032151;28;20048;-83
2021/03/07 05:41:11;;;;;;;2.40;1.13;;;3.40;57.80;;;;;;5047871;28;20044;-82
2021/03/07 05:43:37;;;;;;;0.20;0.20;;;3.40;57.80;;;;;;5042209;28;20497;-82
2021/03/07 05:46:03;;;;;;;0.60;0.57;;;3.40;57.90;;;;;;5054082;28;20043;-83
2021/03/07 05:48:29;;;;;;;2.53;0.57;;;3.40;57.90;;;;;;5052691;28;20462;-83
2021/03/07 05:50:56;;;;;;;0.50;0.30;;;3.40;57.90;;;;;;5053365;28;20033;-83
2021/03/07 05:53:22;;;;;;;2.73;0.57;;;3.40;57.90;;;;;;5055211;28;20043;-83
2021/03/07 05:55:49;;;;;;;2.37;1.27;;;3.40;57.90;;;;;;5054353;28;20528;-82
2021/03/07 05:58:15;;;;;;;1.30;0.43;;;3.40;57.90;;;;;;5054982;28;20059;-83
2021/03/07 06:00:41;;;;;;;1.90;1.10;;;3.40;57.90;;;;;;5053449;28;20504;-83
2021/03/07 06:03:07;;;;;;;4.23;1.67;;;3.40;57.90;;;;;;5039221;28;20040;-82
2021/03/07 06:05:34;;;;;;;2.73;1.33;;;3.40;57.90;;;;;;5056295;28;20040;-83
2021/03/07 06:08:00;;;;;;;1.47;0.80;;;3.40;57.90;;;;;;5034683;28;20060;-83
2021/03/07 06:10:27;;;;;;;3.97;1.07;;;3.50;57.90;;;;;;5054387;28;20029;-83
2021/03/07 06:13:09;;;;;;;3.53;1.37;;;3.50;57.90;;;;;;5055727;28;20114;-82
2021/03/07 06:15:35;;;;;;;3.20;1.40;;;3.50;57.80;;;;;;5051762;28;20036;-82
2021/03/07 06:18:10;;;;;;;4.93;0.93;;;3.50;57.80;;;;;;5035388;28;20493;-83
2021/03/07 06:20:36;;;;;;;1.73;0.70;;;3.50;57.80;;;;;;5056551;28;20029;-82
2021/03/07 06:23:02;;;;;;;0.43;0.30;;;3.50;57.90;;;;;;5055553;28;20402;-82
2021/03/07 06:25:32;;;;;;;0.77;0.40;;;3.50;57.90;;;;;;5055343;28;20025;-83
2021/03/07 06:27:59;;;;;;;0.47;0.27;;;3.50;57.90;;;;;;5054692;28;20028;-83
2021/03/07 06:30:29;;;;;;;1.90;0.93;;;3.50;57.90;;;;;;5050953;28;20052;-82
2021/03/07 06:32:57;;;;;;;1.07;0.50;;;3.40;58.00;;;;;;5053981;28;20040;-82
2021/03/07 06:35:33;;;;;;;1.20;0.70;;;3.40;58.10;;;;;;5017817;28;20292;-82
2021/03/07 06:38:00;;;;;;;1.10;0.90;;;3.30;58.10;;;;;;5053694;28;20485;-82
2021/03/07 06:40:32;;;;;;;1.30;0.73;;;3.30;58.20;;;;;;5055143;28;20466;-83
2021/03/07 06:43:03;;;;;;;1.00;0.90;;;3.30;58.30;;;;;;5054345;28;20485;-82
2021/03/07 06:45:40;;;;;;;2.10;0.80;;;3.20;58.30;;;;;;5050924;28;20397;-82
2021/03/07 06:48:06;;;;;;;4.33;1.60;;;3.20;59.00;;;;;;5018711;28;20093;-82
2021/03/07 06:50:32;;;;;;;1.17;0.90;;;3.20;58.40;;;;;;5054680;28;20363;-82
2021/03/07 06:52:59;;;;;;;2.07;0.70;;;3.20;58.60;;;;;;5053904;28;20040;-83
2021/03/07 06:55:26;;;;;;;1.07;0.30;;;3.10;58.60;;;;;;5044166;28;20037;-82
2021/03/07 06:57:53;;;;;;;1.20;0.90;;;3.10;58.70;;;;;;5038833;28;20036;-82
2021/03/07 07:00:35;;;;;;;1.03;0.70;;;3.10;58.70;;;;;;5053684;28;20033;-82
2021/03/07 07:03:11;;;;;;;2.43;1.13;;;3.10;58.80;;;;;;5063508;28;20040;-82
2021/03/07 07:05:45;;;;;;;5.20;1.13;;;3.10;58.80;;;;;;5058224;28;20040;-82
2021/03/07 07:08:12;;;;;;;1.80;0.70;;;3.10;58.80;;;;;;5057385;28;20151;-82
2021/03/07 07:10:57;;;;;;;3.23;1.33;;;3.20;58.70;;;;;;5057984;28;20025;-82
2021/03/07 07:13:24;;;;;;;1.87;0.50;;;3.20;58.70;;;;;;5054664;28;20033;-83
2021/03/07 07:16:04;;;;;;;0.97;0.20;;;3.20;58.80;;;;;;5039584;28;20398;-81
2021/03/07 07:18:32;;;;;;;2.07;0.63;;;3.20;58.90;;;;;;5049645;28;20487;-81
2021/03/07 07:20:58;;;;;;;2.33;0.43;;;3.20;59.00;;;;;;5039287;28;20025;-81
2021/03/07 07:23:25;;;;;;;0.87;0.60;;;3.20;59.00;;;;;;5041231;28;20389;-81
2021/03/07 07:25:51;;;;;;;1.67;0.60;;;3.30;58.90;;;;;;5057215;28;20032;-81
2021/03/07 07:28:17;;;;;;;1.50;0.87;;;3.30;58.90;;;;;;5057354;28;20021;-82
2021/03/07 07:30:51;;;;;;;0.60;0.30;;;3.30;58.90;;;;;;5056470;28;20033;-83
2021/03/07 07:33:18;;;;;;;3.20;1.13;;;3.40;58.90;;;;;;5031646;28;20025;-83
2021/03/07 07:35:45;;;;;;;1.53;0.70;;;3.60;58.90;;;;;;5032979;28;20060;-83
2021/03/07 07:38:11;;;;;;;1.07;0.50;;;3.80;58.60;;;;;;5038899;28;20029;-81
2021/03/07 07:40:40;;;;;;;2.67;0.63;;;4.20;58.10;;;;;;5037442;28;20037;-81
2021/03/07 07:43:06;;;;;;;0.30;0.13;;;4.50;57.60;;;;;;5048966;28;20045;-83
2021/03/07 07:45:32;;;;;;;0.97;0.43;;;4.80;57.20;;;;;;5053485;28;20045;-83
2021/03/07 07:47:58;;;;;;;1.43;0.73;;;5.00;56.80;;;;;;5056166;28;20029;-85
2021/03/07 07:50:34;;;;;;;1.33;0.70;;;5.30;56.50;;;;;;5057589;28;20055;-82
2021/03/07 07:53:07;;;;;;;1.33;0.57;;;5.50;56.90;;;;;;5057758;28;20033;-83
2021/03/07 07:55:51;;;;;;;2.03;1.20;;;5.80;56.00;;;;;;5058235;28;20061;-82
2021/03/07 07:58:36;;;;;;;1.77;1.30;;;6.00;55.70;;;;;;5064353;28;20036;-82
2021/03/07 08:01:06;;;;;;;0.77;0.50;;;6.20;55.50;;;;;;5057921;28;20515;-84
2021/03/07 08:03:35;;;;;;;0.20;0.20;;;6.40;55.30;;;;;;5063534;28;20025;-84
2021/03/07 08:06:07;;;;;;;1.57;0.77;;;6.50;55.10;;;;;;5054971;28;20040;-84
2021/03/07 08:08:37;;;;;;;0.53;0.10;;;6.50;55.10;;;;;;5053917;28;20638;-85
2021/03/07 08:11:05;;;;;;;0.00;0.00;;;6.50;55.40;;;;;;5029674;28;20385;-87
2021/03/07 08:13:34;;;;;;;0.00;0.00;;;6.40;55.50;;;;;;5051602;28;20025;-87
2021/03/07 08:16:01;;;;;;;2.17;1.07;;;6.50;56.00;;;;;;5046566;28;20041;-86
2021/03/07 08:18:46;;;;;;;1.93;0.90;;;6.50;55.90;;;;;;5050668;28;20381;-86
2021/03/07 08:21:12;;;;;;;3.40;0.87;;;6.70;55.80;;;;;;5050549;28;20028;-87
2021/03/07 08:23:57;;;;;;;3.03;0.60;;;6.90;55.50;;;;;;5032441;28;20052;-87
2021/03/07 08:26:25;;;;;;;4.97;0.77;;;7.30;55.30;;;;;;5050469;28;20021;-85
2021/03/07 08:28:51;;;;;;;0.65;0.32;;;7.50;54.70;;;;;;5034703;28;20044;-87
2021/03/07 08:31:20;;;;;;;3.00;0.97;;;7.60;54.50;;;;;;5048214;28;20036;-84
2021/03/07 08:33:46;;;;;;;2.17;1.20;;;7.70;54.50;;;;;;5049286;28;20036;-86
2021/03/07 08:36:20;;;;;;;2.03;0.50;;;7.80;54.40;;;;;;5050299;28;20056;-86
2021/03/07 08:38:50;;;;;;;0.40;0.30;;;7.80;54.40;;;;;;5035244;28;20029;-89
2021/03/07 08:41:17;;;;;;;0.57;0.30;;;7.90;54.30;;;;;;5051017;28;20037;-87
2021/03/07 08:43:44;;;;;;;0.60;0.60;;;7.90;54.30;;;;;;5030660;28;20504;-86
2021/03/07 08:46:12;;;;;;;4.10;1.33;;;7.80;54.20;;;;;;5049398;28;20029;-88
2021/03/07 08:48:39;;;;;;;1.80;0.77;;;7.80;54.40;;;;;;5050339;28;20041;-89
2021/03/07 08:51:05;;;;;;;0.10;0.10;;;8.10;54.40;;;;;;5032988;28;20040;-91
2021/03/07 08:53:33;;;;;;;4.82;1.13;;;8.30;53.90;;;;;;5047536;28;20033;-92
2021/03/07 08:55:59;;;;;;;1.60;0.30;;;8.30;53.80;;;;;;5050232;28;20041;-89
2021/03/07 08:58:25;;;;;;;2.22;0.85;;;8.40;53.70;;;;;;5047059;28;20017;-89
2021/03/07 09:00:53;;;;;;;1.38;0.32;;;8.40;53.60;;;;;;5049889;28;20041;-85
2021/03/07 09:03:26;;;;;;;1.98;1.05;;;8.40;53.60;;;;;;5032580;28;20409;-84
2021/03/07 09:05:53;;;;;;;0.47;0.38;;;8.50;53.60;;;;;;5051000;28;20044;-85
2021/03/07 09:08:23;;;;;;;2.22;0.90;;;8.70;53.50;;;;;;5050361;28;20417;-84
2021/03/07 09:10:50;;;;;;;1.75;0.68;;;8.90;53.40;;;;;;5049771;28;20035;-81
2021/03/07 09:13:20;;;;;;;1.80;0.95;;;8.90;53.20;;;;;;5051719;28;20214;-82
2021/03/07 09:15:59;;;;;;;1.92;1.08;;;8.90;53.20;;;;;;5051153;28;20397;-82
2021/03/07 09:18:30;;;;;;;2.22;1.20;;;9.10;53.20;;;;;;5053853;28;20489;-85
2021/03/07 09:20:58;;;;;;;3.88;2.05;;;9.50;53.00;;;;;;5019039;28;20041;-84
2021/03/07 09:23:31;;;;;;;1.15;0.38;;;9.80;52.60;;;;;;5034767;28;20041;-81
2021/03/07 09:26:02;;;;;;;2.28;1.27;;;10.00;52.30;;;;;;5046842;28;20040;-81
2021/03/07 09:28:30;;;;;;;1.90;1.00;;;10.00;52.00;;;;;;5042910;28;20048;-86
2021/03/07 09:30:57;;;;;;;2.97;0.73;;;10.00;52.00;;;;;;5037140;28;20040;-83
2021/03/07 09:33:23;;;;;;;4.65;0.95;;;10.00;52.00;;;;;;5050855;28;20021;-86
2021/03/07 09:36:05;;;;;;;3.28;0.90;;;10.00;52.10;;;;;;5021574;28;20032;-85
2021/03/07 09:38:48;;;;;;;0.95;0.47;;;10.00;52.10;;;;;;5054559;28;20029;-82
2021/03/07 09:41:15;;;;;;;1.10;0.52;;;10.00;52.00;;;;;;5050392;28;20044;-86
2021/03/07 09:43:45;;;;;;;1.58;1.10;;;10.00;52.10;;;;;;5034639;28;20045;-82
2021/03/07 09:46:12;;;;;;;2.38;1.05;;;10.00;52.20;;;;;;5037494;28;20390;-81
2021/03/07 09:48:38;;;;;;;0.93;0.22;;;10.20;52.10;;;;;;5053777;28;20040;-82
2021/03/07 09:51:10;;;;;;;2.63;0.95;;;10.40;51.90;;;;;;5034738;28;20025;-82
2021/03/07 09:53:36;;;;;;;4.75;1.42;;;10.50;51.80;;;;;;5055053;28;20024;-81
2021/03/07 09:56:03;;;;;;;0.88;0.50;;;10.60;51.70;;;;;;5055900;28;20362;-82
2021/03/07 09:58:38;;;;;;;7.05;2.00;;;10.80;51.50;;;;;;5054371;28;20037;-82
2021/03/07 10:01:07;;;;;;;3.65;1.27;;;10.80;51.30;;;;;;5054237;28;20033;-81
2021/03/07 10:03:34;;;;;;;5.47;0.82;;;10.70;51.30;;;;;;5051522;28;20032;-81
2021/03/07 10:06:14;;;;;;;1.77;0.55;;;10.70;51.50;;;;;;5063793;28;20033;-82
2021/03/07 10:08:41;;;;;;;3.80;1.23;;;10.80;51.40;;;;;;5037530;28;20040;-82
2021/03/07 10:11:26;;;;;;;6.18;1.27;;;10.90;51.40;;;;;;5053697;28;20780;-82
2021/03/07 10:14:05;;;;;;;0.73;0.20;;;11.10;51.30;;;;;;5055236;28;20397;-83
2021/03/07 10:16:33;;;;;;;3.60;0.95;;;11.30;51.10;;;;;;5047378;28;20521;-81
2021/03/07 10:19:06;;;;;;;2.10;0.95;;;11.30;50.90;;;;;;5053947;28;20420;-82
2021/03/07 10:21:33;;;;;;;0.20;0.10;;;11.20;50.80;;;;;;5052928;28;20018;-82
2021/03/07 10:24:15;;;;;;;2.22;0.85;;;11.20;50.90;;;;;;5052100;28;20409;-81
2021/03/07 10:26:42;;;;;;;5.95;0.82;;;11.20;50.70;;;;;;5054398;28;20017;-82
2021/03/07 10:29:38;;;;;;;2.35;1.10;;;11.20;50.80;;;;;;5052875;28;20116;-81
2021/03/07 10:32:20;;;;;;;3.42;1.50;;;11.20;50.70;;;;;;5044157;28;20037;-82
2021/03/07 10:34:48;;;;;;;0.85;0.45;;;11.30;50.60;;;;;;5068043;28;20473;-81
2021/03/07 10:37:34;;;;;;;2.70;1.42;;;11.40;50.30;;;;;;5065706;28;20028;-81
2021/03/07 10:40:00;;;;;;;2.20;0.88;;;11.50;50.30;;;;;;5058633;28;20021;-81
2021/03/07 10:42:40;;;;;;;1.80;0.77;;;11.50;50.10;;;;;;5054536;28;20037;-81
2021/03/07 10:45:16;;;;;;;1.00;0.60;;;11.50;50.10;;;;;;5037903;28;20029;-83
2021/03/07 10:47:42;;;;;;;3.25;1.10;;;11.50;50.10;;;;;;5059130;28;20048;-82
2021/03/07 10:50:10;;;;;;;2.10;0.40;;;11.60;49.90;;;;;;5023359;28;20041;-81
2021/03/07 10:52:36;;;;;;;12.45;2.20;;;11.70;49.70;;;;;;5057457;28;20028;-82
2021/03/07 10:55:13;;;;;;;0.68;0.40;;;11.70;49.50;;;;;;5058612;28;20090;-83
2021/03/07 10:57:39;;;;;;;1.27;0.30;;;11.70;49.30;;;;;;5058961;28;20021;-81
2021/03/07 11:00:06;;;;;;;3.92;0.70;;;11.80;49.20;;;;;;5070114;28;20025;-81
2021/03/07 11:02:32;;;;;;;0.35;0.17;;;11.80;49.20;;;;;;5057960;28;20063;-81
2021/03/07 11:04:59;;;;;;;5.43;1.38;;;12.00;49.10;;;;;;5058660;28;20025;-81
2021/03/07 11:07:25;;;;;;;3.42;1.27;;;12.10;48.70;;;;;;5057955;28;20040;-82
2021/03/07 11:09:51;;;;;;;2.40;1.10;;;12.10;48.60;;;;;;5052048;28;20037;-82
2021/03/07 11:12:17;;;;;;;0.82;0.63;;;12.20;48.50;;;;;;5057350;28;20029;-82
2021/03/07 11:14:43;;;;;;;1.00;0.57;;;12.10;48.40;;;;;;5065358;28;20504;-82
2021/03/07 11:17:09;;;;;;;0.65;0.50;;;12.10;48.40;;;;;;5073238;28;20033;-82
2021/03/07 11:19:36;;;;;;;3.33;1.23;;;12.00;48.20;;;;;;5039634;28;20041;-82
2021/03/07 11:22:03;;;;;;;7.88;1.17;;;12.00;48.10;;;;;;5057431;28;20044;-82
2021/03/07 11:24:29;;;;;;;2.33;0.93;;;12.10;48.10;;;;;;5055623;28;20355;-87
2021/03/07 11:26:55;;;;;;;3.75;0.75;;;12.20;48.60;;;;;;5038724;28;20048;-88
2021/03/07 11:29:22;;;;;;;1.38;0.80;;;12.20;47.70;;;;;;5040052;28;20037;-85
2021/03/07 11:31:48;;;;;;;2.00;0.60;;;12.40;47.70;;;;;;5056535;28;20041;-84
2021/03/07 11:34:14;;;;;;;2.55;1.10;;;12.40;47.50;;;;;;5057031;28;20017;-87
2021/03/07 11:36:40;;;;;;;4.05;1.40;;;12.50;47.20;;;;;;5055169;28;20051;-88
2021/03/07 11:39:06;;;;;;;3.33;1.58;;;12.50;47.10;;;;;;5053424;28;20021;-85
2021/03/07 11:41:32;;;;;;;0.80;0.40;;;12.50;47.00;;;;;;5056714;28;20056;-88
2021/03/07 11:43:58;;;;;;;3.65;1.40;;;12.60;46.90;;;;;;5057427;28;20053;-85
2021/03/07 11:46:24;;;;;;;2.97;1.20;;;12.60;46.80;;;;;;5056321;28;20029;-84
2021/03/07 11:48:51;;;;;;;0.77;0.32;;;12.60;46.70;;;;;;5057669;28;20037;-85
2021/03/07 11:51:17;;;;;;;1.33;0.50;;;12.60;46.30;;;;;;5041177;28;20052;-86
2021/03/07 11:53:43;;;;;;;2.05;0.95;;;12.60;46.40;;;;;;5058083;28;20036;-83
2021/03/07 11:56:09;;;;;;;5.10;1.27;;;12.60;46.40;;;;;;5055434;28;20404;-81
2021/03/07 11:58:35;;;;;;;1.40;0.60;;;12.70;46.40;;;;;;5061518;28;20039;-82
2021/03/07 12:01:01;;;;;;;3.15;1.05;;;12.80;46.20;;;;;;5065013;28;20033;-81
2021/03/07 12:03:27;;;;;;;4.05;1.08;;;12.90;46.00;;;;;;5060539;28;20055;-81
2021/03/07 12:05:53;;;;;;;1.95;0.70;;;13.00;45.90;;;;;;5056560;28;20389;-83
2021/03/07 12:08:19;;;;;;;1.95;1.00;;;13.10;45.80;;;;;;5055962;28;20052;-84
2021/03/07 12:10:46;;;;;;;1.42;0.77;;;13.10;45.70;;;;;;5054029;28;20421;-83
2021/03/07 12:13:12;;;;;;;1.50;0.57;;;13.30;45.80;;;;;;5038377;28;20044;-83
2021/03/07 12:15:38;;;;;;;1.15;0.73;;;13.40;45.60;;;;;;5054335;28;20044;-82
2021/03/07 12:18:04;;;;;;;0.55;0.17;;;13.50;45.50;;;;;;5036542;28;20379;-82
2021/03/07 12:20:30;;;;;;;0.95;0.43;;;13.50;45.40;;;;;;5057047;28;20040;-82
2021/03/07 12:22:56;;;;;;;2.90;0.90;;;13.60;45.40;;;;;;5052222;28;20045;-83
2021/03/07 12:25:22;;;;;;;1.63;0.77;;;13.50;45.30;;;;;;5055563;28;20021;-83
2021/03/07 12:27:48;;;;;;;1.52;0.68;;;13.60;45.50;;;;;;5038601;28;20041;-83
2021/03/07 12:30:16;;;;;;;3.22;0.82;;;13.80;45.40;;;;;;5050620;28;20474;-82
2021/03/07 12:32:42;;;;;;;3.40;0.98;;;13.90;45.10;;;;;;5062332;28;20024;-81
2021/03/07 12:35:09;;;;;;;1.23;0.50;;;14.00;45.00;;;;;;5055433;28;20044;-82
2021/03/07 12:37:35;;;;;;;2.50;1.30;;;14.00;44.90;;;;;;5052865;28;20025;-83
2021/03/07 12:40:02;;;;;;;1.92;0.80;;;14.00;44.90;;;;;;5058434;28;20036;-81
2021/03/07 12:42:28;;;;;;;1.27;0.55;;;14.10;44.90;;;;;;5063773;28;20056;-82
2021/03/07 12:44:57;;;;;;;1.67;0.82;;;14.10;44.80;;;;;;5037570;28;20037;-82
2021/03/07 12:47:23;;;;;;;3.63;0.80;;;14.10;44.80;;;;;;5056247;28;20060;-82
2021/03/07 12:49:49;;;;;;;1.67;0.30;;;14.20;44.80;;;;;;5056141;28;20036;-83
2021/03/07 12:52:15;;;;;;;1.30;0.20;;;14.30;44.70;;;;;;5055519;28;20025;-81
2021/03/07 12:54:42;;;;;;;2.70;1.27;;;14.30;44.40;;;;;;5052934;28;20032;-81
2021/03/07 12:57:08;;;;;;;1.77;0.60;;;14.20;44.50;;;;;;5052973;28;20037;-81
2021/03/07 12:59:34;;;;;;;2.40;1.30;;;14.20;44.40;;;;;;5056314;28;20036;-81